Time;durP1;ratioP1;P1;durP2;ratioP2;P2;SDS_P1;SDS_P2;PMS_P1;PMS_P2;Temp;Humidity;BMP_temperature;BMP_pressure;BME280_temperature;BME280_humidity;BME280_pressure;Samples;Min_cycle;Max_cycle;Signal;HPM_P1;HPM_P2
2022/07/18 00:00:06;;;;;;;4.10;3.33;;;;;;;16.19;69.11;99758.16;5044460;28;20053;-62
2022/07/18 00:02:31;;;;;;;5.28;3.70;;;;;;;16.36;68.77;99778.00;5046330;28;20064;-62
2022/07/18 00:04:57;;;;;;;4.25;3.20;;;;;;;16.32;68.88;99768.53;5031985;28;20053;-63
2022/07/18 00:07:22;;;;;;;4.78;3.67;;;;;;;16.40;68.62;99779.38;5031818;28;20037;-63
2022/07/18 00:09:48;;;;;;;5.95;3.83;;;;;;;16.43;68.48;99765.53;5042855;28;20029;-62
2022/07/18 00:12:13;;;;;;;7.50;3.78;;;;;;;16.25;68.36;99749.41;5051693;28;20092;-62
2022/07/18 00:14:39;;;;;;;4.82;3.15;;;;;;;16.42;68.12;99769.25;5051968;28;20040;-65
2022/07/18 00:17:06;;;;;;;4.60;3.08;;;;;;;16.44;68.07;99778.03;5051364;28;20385;-63
2022/07/18 00:19:31;;;;;;;7.28;3.70;;;;;;;16.47;68.23;99772.31;5040617;28;20090;-63
2022/07/18 00:21:57;;;;;;;4.47;3.35;;;;;;;16.38;67.77;99745.41;5048009;28;20029;-63
2022/07/18 00:24:23;;;;;;;5.32;3.47;;;;;;;16.50;68.15;99771.97;5051389;28;20033;-64
2022/07/18 00:26:48;;;;;;;4.85;3.40;;;;;;;16.36;67.86;99754.53;5051179;28;20033;-63
2022/07/18 00:29:14;;;;;;;4.07;3.67;;;;;;;16.43;68.03;99754.72;5038179;28;20039;-62
2022/07/18 00:31:39;;;;;;;4.38;3.70;;;;;;;16.47;67.80;99769.59;5051250;28;20443;-62
2022/07/18 00:34:05;;;;;;;5.07;3.60;;;;;;;16.43;68.39;99770.09;5050743;28;20044;-62
2022/07/18 00:36:31;;;;;;;4.57;3.58;;;;;;;16.41;68.44;99767.56;5031486;28;20030;-60
2022/07/18 00:38:58;;;;;;;6.07;3.33;;;;;;;16.41;68.10;99772.97;5035224;28;20017;-62
2022/07/18 00:41:24;;;;;;;4.70;3.90;;;;;;;16.39;68.77;99777.66;5050970;28;20037;-62
2022/07/18 00:43:50;;;;;;;5.80;3.95;;;;;;;16.40;68.61;99768.56;5049856;28;20078;-61
2022/07/18 00:46:15;;;;;;;5.13;3.38;;;;;;;16.43;68.64;99770.94;5050922;28;20028;-61
2022/07/18 00:48:42;;;;;;;5.72;3.20;;;;;;;16.44;68.33;99766.38;5031272;28;20124;-65
2022/07/18 00:51:08;;;;;;;6.78;3.55;;;;;;;16.42;68.32;99769.25;5030015;28;20120;-63
2022/07/18 00:53:35;;;;;;;4.78;3.47;;;;;;;16.41;67.93;99764.84;5037255;28;20435;-62
2022/07/18 00:56:02;;;;;;;5.97;3.58;;;;;;;16.42;67.67;99763.84;5050874;28;20385;-62
2022/07/18 00:58:29;;;;;;;5.75;3.30;;;;;;;16.42;67.70;99774.66;5050778;28;20029;-64
2022/07/18 01:03:39;;;;;;;6.43;3.60;;;;;;;16.45;67.61;99766.22;5031200;28;20077;-63
2022/07/18 01:06:05;;;;;;;7.60;3.47;;;;;;;16.41;67.58;99755.91;5031019;28;20057;-62
2022/07/18 01:08:30;;;;;;;4.85;4.07;;;;;;;16.44;67.63;99761.81;5030887;28;20037;-63
2022/07/18 01:10:56;;;;;;;5.85;3.63;;;;;;;16.45;67.60;99766.22;5031074;28;20037;-63
2022/07/18 01:13:22;;;;;;;7.03;3.90;;;;;;;16.47;67.67;99769.59;5030855;28;20440;-62
2022/07/18 01:15:47;;;;;;;4.55;3.20;;;;;;;16.47;67.58;99760.63;5030598;28;20037;-63
2022/07/18 01:18:13;;;;;;;6.10;3.78;;;;;;;16.46;67.51;99758.94;5032320;28;20037;-66
2022/07/18 01:20:38;;;;;;;3.80;3.33;;;;;;;16.48;67.63;99752.38;5031026;28;20057;-62
2022/07/18 01:23:04;;;;;;;4.85;3.47;;;;;;;16.50;67.64;99755.75;5030526;28;20038;-62
2022/07/18 01:25:30;;;;;;;4.88;3.30;;;;;;;16.53;67.32;99753.72;5030412;28;20053;-63
2022/07/18 01:27:56;;;;;;;10.80;3.40;;;;;;;16.55;67.32;99746.31;5030836;28;20462;-61
2022/07/18 01:30:23;;;;;;;4.95;2.95;;;;;;;16.58;66.86;99743.28;5048077;28;20025;-62
2022/07/18 01:32:59;;;;;;;4.57;2.72;;;;;;;16.70;66.87;99757.31;5048733;28;20037;-61
2022/07/18 01:35:25;;;;;;;5.03;3.20;;;;;;;16.68;67.10;99754.81;5029031;28;20032;-62
2022/07/18 01:37:56;;;;;;;3.95;3.20;;;;;;;16.78;66.31;99754.66;5030588;28;20033;-61
2022/07/18 01:40:22;;;;;;;4.15;2.85;;;;;;;16.77;66.35;99759.19;5048916;28;20097;-62
2022/07/18 01:42:47;;;;;;;7.20;3.30;;;;;;;16.78;66.68;99755.47;5051043;28;20060;-63
2022/07/18 01:45:14;;;;;;;3.80;2.92;;;;;;;16.83;65.80;99754.13;5052791;28;20489;-62
2022/07/18 01:47:39;;;;;;;4.85;2.78;;;;;;;16.85;66.32;99749.41;5054435;28;20029;-62
2022/07/18 01:50:05;;;;;;;6.00;2.80;;;;;;;16.88;66.19;99758.03;5037816;28;20112;-61
2022/07/18 01:52:31;;;;;;;4.22;2.85;;;;;;;16.91;65.78;99751.47;5043944;28;20033;-63
2022/07/18 01:54:56;;;;;;;4.50;2.75;;;;;;;16.93;65.65;99750.25;5054267;28;20523;-63
2022/07/18 01:57:22;;;;;;;4.13;2.85;;;;;;;16.79;65.71;99722.03;5039570;28;20036;-63
2022/07/18 01:59:47;;;;;;;3.20;2.40;;;;;;;16.96;64.74;99751.78;5053162;28;20095;-62
2022/07/18 02:02:13;;;;;;;3.63;2.65;;;;;;;16.96;64.80;99738.28;5054369;28;20124;-63
2022/07/18 02:07:22;;;;;;;3.75;2.38;;;;;;;17.04;63.75;99734.78;5053557;28;20068;-64
2022/07/18 02:09:48;;;;;;;5.88;2.83;;;;;;;17.04;63.61;99735.59;5034287;28;20064;-63
2022/07/18 02:12:13;;;;;;;3.00;2.50;;;;;;;17.07;63.29;99745.25;5051309;28;20043;-62
2022/07/18 02:14:39;;;;;;;4.95;2.53;;;;;;;17.08;63.24;99741.53;5053931;28;20029;-63
2022/07/18 02:17:04;;;;;;;3.85;2.15;;;;;;;17.10;63.58;99736.78;5052814;28;20424;-62
2022/07/18 02:19:30;;;;;;;3.63;2.47;;;;;;;17.13;63.22;99741.03;5036645;28;20042;-64
2022/07/18 02:21:56;;;;;;;4.25;2.67;;;;;;;17.03;63.49;99728.50;5053211;28;20469;-62
2022/07/18 02:24:21;;;;;;;2.78;2.35;;;;;;;17.17;63.39;99745.91;5053606;28;20056;-63
2022/07/18 02:26:46;;;;;;;3.05;2.70;;;;;;;17.18;63.30;99747.59;5053978;28;20029;-66
2022/07/18 02:29:12;;;;;;;5.90;2.38;;;;;;;17.04;63.37;99724.78;5031611;28;20420;-62
2022/07/18 02:31:37;;;;;;;3.58;2.38;;;;;;;17.19;63.67;99748.47;5033455;28;20084;-63
2022/07/18 02:34:09;;;;;;;5.30;2.42;;;;;;;17.19;63.41;99732.22;5033742;28;20032;-62
2022/07/18 02:36:39;;;;;;;2.60;2.30;;;;;;;17.25;63.07;99742.38;5033602;28;20408;-62
2022/07/18 02:39:05;;;;;;;3.92;3.08;;;;;;;17.26;63.30;99743.22;5046134;28;20484;-62
2022/07/18 02:41:31;;;;;;;5.85;2.58;;;;;;;17.29;63.36;99743.72;5053243;28;20435;-62
2022/07/18 02:43:57;;;;;;;4.07;2.90;;;;;;;17.33;63.38;99741.53;5053388;28;20509;-61
2022/07/18 02:46:22;;;;;;;4.70;2.58;;;;;;;17.38;62.95;99746.44;5037029;28;20525;-62
2022/07/18 02:48:48;;;;;;;5.00;2.47;;;;;;;17.41;63.09;99732.56;5034508;28;20033;-66
2022/07/18 02:51:13;;;;;;;4.65;2.65;;;;;;;17.44;62.59;99740.34;5032119;28;20038;-63
2022/07/18 02:53:39;;;;;;;2.75;2.55;;;;;;;17.48;62.60;99737.13;5042861;28;20036;-64
2022/07/18 02:56:04;;;;;;;6.18;2.80;;;;;;;17.55;63.29;99731.84;5053305;28;20481;-62
2022/07/18 02:58:32;;;;;;;4.05;2.60;;;;;;;17.60;62.20;99728.63;5041719;28;20060;-62
2022/07/18 03:00:57;;;;;;;4.03;2.33;;;;;;;17.67;61.48;99734.22;5032692;28;20065;-64
2022/07/18 03:03:23;;;;;;;5.10;2.33;;;;;;;17.72;60.96;99737.22;5033052;28;20385;-62
2022/07/18 03:05:48;;;;;;;3.53;2.38;;;;;;;17.79;61.19;99724.69;5033613;28;20049;-62
2022/07/18 03:08:14;;;;;;;4.70;2.35;;;;;;;17.86;60.70;99732.97;5041028;28;20115;-63
2022/07/18 03:10:39;;;;;;;4.07;2.63;;;;;;;17.93;60.49;99734.81;5052474;28;20071;-63
2022/07/18 03:13:05;;;;;;;3.47;1.88;;;;;;;17.99;59.93;99727.00;5050967;28;20087;-61
2022/07/18 03:15:31;;;;;;;3.95;2.20;;;;;;;17.92;60.01;99716.00;5052573;28;20115;-63
2022/07/18 03:17:57;;;;;;;4.15;2.80;;;;;;;18.06;59.51;99739.69;5046434;28;20477;-63
2022/07/18 03:20:22;;;;;;;3.72;2.33;;;;;;;17.94;59.87;99722.09;5032693;28;20037;-62
2022/07/18 03:22:48;;;;;;;2.95;2.33;;;;;;;17.94;59.37;99713.97;5032891;28;20033;-62
2022/07/18 03:25:13;;;;;;;2.65;2.00;;;;;;;18.09;58.51;99738.53;5032648;28;20033;-61
2022/07/18 03:27:39;;;;;;;3.58;2.22;;;;;;;17.99;58.63;99738.69;5032266;28;20056;-62
2022/07/18 03:30:05;;;;;;;3.88;2.10;;;;;;;17.93;58.64;99747.50;5032163;28;20059;-62
2022/07/18 03:32:30;;;;;;;6.25;2.00;;;;;;;17.68;58.05;99711.53;5032113;28;20038;-62
2022/07/18 03:34:56;;;;;;;3.42;1.83;;;;;;;17.69;58.14;99724.03;5032542;28;20043;-62
2022/07/18 03:37:21;;;;;;;2.72;1.83;;;;;;;17.79;58.30;99735.50;5032960;28;20087;-65
2022/07/18 03:39:47;;;;;;;2.97;1.88;;;;;;;17.75;58.20;99724.19;5050969;28;20048;-63
2022/07/18 03:42:12;;;;;;;6.50;2.08;;;;;;;17.80;58.75;99737.19;5052092;28;20025;-62
2022/07/18 03:44:37;;;;;;;3.25;1.80;;;;;;;17.64;58.93;99695.63;5032811;28;20444;-62
2022/07/18 03:47:03;;;;;;;2.35;1.85;;;;;;;17.86;58.49;99736.53;5031862;28;20117;-64
2022/07/18 03:49:28;;;;;;;2.85;1.67;;;;;;;17.87;58.71;99735.50;5049461;28;20033;-62
2022/07/18 03:51:57;;;;;;;3.60;1.95;;;;;;;17.86;58.42;99732.97;5050444;28;20037;-63
2022/07/18 03:54:23;;;;;;;3.35;2.22;;;;;;;17.88;58.56;99741.75;5050384;28;20394;-65
2022/07/18 03:56:49;;;;;;;3.42;2.05;;;;;;;17.89;58.30;99738.03;5052253;28;20071;-61
2022/07/18 03:59:15;;;;;;;3.47;1.73;;;;;;;17.94;57.75;99735.63;5034700;28;20104;-62
2022/07/18 04:01:40;;;;;;;3.78;2.10;;;;;;;17.99;58.22;99735.13;5043862;28;20136;-62
2022/07/18 04:04:06;;;;;;;2.45;1.88;;;;;;;17.93;57.89;99734.81;5050743;28;20041;-62
2022/07/18 04:06:31;;;;;;;9.32;2.00;;;;;;;17.92;57.78;99729.56;5049677;28;20029;-61
2022/07/18 04:08:57;;;;;;;3.63;2.03;;;;;;;18.00;57.46;99743.09;5037017;28;20429;-63
2022/07/18 04:11:23;;;;;;;4.38;2.28;;;;;;;17.99;57.43;99735.13;5030907;28;20026;-68
2022/07/18 04:13:53;;;;;;;7.07;2.00;;;;;;;18.06;57.04;99750.53;5046050;28;20108;-61
2022/07/18 04:16:19;;;;;;;7.00;2.45;;;;;;;18.00;57.18;99747.66;5051593;28;20032;-61
2022/07/18 04:18:45;;;;;;;3.80;2.10;;;;;;;17.98;57.19;99739.72;5038967;28;20064;-62
2022/07/18 04:21:10;;;;;;;4.38;2.20;;;;;;;17.99;57.34;99738.69;5031518;28;20041;-62
2022/07/18 04:23:36;;;;;;;2.53;2.00;;;;;;;18.05;57.15;99746.16;5031338;28;20074;-62
2022/07/18 04:26:03;;;;;;;3.85;2.30;;;;;;;18.13;57.63;99745.28;5038937;28;20450;-61
2022/07/18 04:28:29;;;;;;;4.60;2.13;;;;;;;18.25;57.48;99748.44;5038487;28;20148;-61
2022/07/18 04:30:55;;;;;;;2.67;2.10;;;;;;;18.41;57.77;99757.50;5031303;28;20059;-64
2022/07/18 04:33:21;;;;;;;5.32;2.20;;;;;;;18.36;56.36;99717.41;5040582;28;20474;-62
2022/07/18 04:35:48;;;;;;;3.92;2.17;;;;;;;18.62;55.84;99751.47;5045267;28;20037;-62
2022/07/18 04:38:14;;;;;;;2.95;2.13;;;;;;;18.58;55.94;99721.16;5048981;28;20029;-63
2022/07/18 04:40:39;;;;;;;4.85;1.90;;;;;;;18.74;55.54;99722.91;5050929;28;20062;-64
2022/07/18 04:43:05;;;;;;;3.85;2.08;;;;;;;18.99;55.67;99739.03;5039013;28;20029;-64
2022/07/18 04:45:31;;;;;;;7.30;2.50;;;;;;;19.00;54.67;99713.59;5030596;28;20470;-64
2022/07/18 04:47:57;;;;;;;2.42;2.05;;;;;;;19.41;53.55;99741.41;5038849;28;20032;-62
2022/07/18 04:50:24;;;;;;;3.35;2.05;;;;;;;19.66;53.29;99739.31;5048419;28;20078;-64
2022/07/18 04:52:50;;;;;;;7.10;2.50;;;;;;;19.95;52.08;99732.25;5030803;28;20026;-63
2022/07/18 04:55:17;;;;;;;4.97;2.47;;;;;;;20.21;51.56;99731.72;5038026;28;20032;-64
2022/07/18 04:57:43;;;;;;;3.55;2.50;;;;;;;20.41;50.59;99725.69;5041249;28;20025;-62
2022/07/18 05:00:15;;;;;;;4.43;2.33;;;;;;;20.71;50.65;99730.22;5030921;28;20041;-63
2022/07/18 05:02:42;;;;;;;4.18;2.45;;;;;;;20.77;49.72;99708.53;5029840;28;20045;-64
2022/07/18 05:05:09;;;;;;;4.70;2.45;;;;;;;21.29;48.82;99726.59;5038168;28;20043;-63
2022/07/18 05:07:35;;;;;;;4.57;2.10;;;;;;;21.95;46.75;99728.16;5050618;28;20120;-63
2022/07/18 05:10:03;;;;;;;7.45;2.60;;;;;;;22.36;46.44;99721.00;5032927;28;20067;-62
2022/07/18 05:12:29;;;;;;;3.80;2.40;;;;;;;22.64;45.25;99729.09;5032797;28;20044;-64
2022/07/18 05:14:55;;;;;;;5.47;3.20;;;;;;;22.68;44.83;99732.25;5037162;28;20033;-62
2022/07/18 05:17:20;;;;;;;5.25;2.67;;;;;;;22.50;44.43;99706.41;5052290;28;20056;-64
2022/07/18 05:19:46;;;;;;;4.28;2.60;;;;;;;22.65;44.63;99722.59;5033044;28;20095;-63
2022/07/18 05:22:11;;;;;;;5.28;2.67;;;;;;;22.68;44.70;99728.69;5034738;28;20087;-63
2022/07/18 05:24:37;;;;;;;5.15;2.65;;;;;;;22.62;44.21;99733.91;5033055;28;20478;-63
2022/07/18 05:27:02;;;;;;;6.60;3.00;;;;;;;22.32;44.72;99739.66;5000595;28;20032;-62
2022/07/18 05:29:28;;;;;;;3.78;2.80;;;;;;;22.12;45.13;99736.00;5034584;28;20064;-62
2022/07/18 05:31:53;;;;;;;6.00;2.70;;;;;;;21.94;46.00;99742.81;5034961;28;20386;-62
2022/07/18 05:34:19;;;;;;;3.90;3.03;;;;;;;21.72;45.79;99732.00;5035064;28;20033;-62
2022/07/18 05:36:44;;;;;;;6.85;2.90;;;;;;;21.62;46.17;99740.47;5053860;28;20381;-62
2022/07/18 05:39:10;;;;;;;3.67;2.80;;;;;;;21.52;46.67;99732.66;5052832;28;20033;-62
2022/07/18 05:41:35;;;;;;;5.00;2.90;;;;;;;21.47;46.19;99737.88;5052388;28;20029;-63
2022/07/18 05:44:01;;;;;;;6.47;3.20;;;;;;;21.51;46.66;99741.03;5054280;28;20021;-63
2022/07/18 05:46:26;;;;;;;4.35;2.67;;;;;;;22.01;44.57;99734.69;5053686;28;20086;-64
2022/07/18 05:48:52;;;;;;;4.13;2.65;;;;;;;23.45;41.07;99725.63;5051913;28;20035;-62
2022/07/18 05:51:19;;;;;;;5.25;2.65;;;;;;;24.50;38.84;99730.19;5034662;28;20056;-62
2022/07/18 05:53:45;;;;;;;5.05;2.90;;;;;;;24.64;37.98;99714.53;5034114;28;20116;-62
2022/07/18 05:56:10;;;;;;;5.00;2.75;;;;;;;24.44;37.74;99692.78;5049826;28;20136;-63
2022/07/18 05:58:36;;;;;;;6.47;2.90;;;;;;;24.30;38.23;99715.75;5054036;28;20041;-63
2022/07/18 06:01:01;;;;;;;3.97;2.45;;;;;;;24.17;39.94;99720.25;5051409;28;20053;-63
2022/07/18 06:03:27;;;;;;;4.97;2.47;;;;;;;24.44;39.61;99703.72;5054163;28;20049;-62
2022/07/18 06:05:52;;;;;;;5.50;2.95;;;;;;;25.56;37.54;99698.75;5036041;28;20402;-63
2022/07/18 06:08:18;;;;;;;4.85;2.67;;;;;;;26.48;35.60;99694.28;5034114;28;20374;-63
2022/07/18 06:10:43;;;;;;;3.25;2.38;;;;;;;27.03;34.00;99691.59;5033650;28;20469;-62
2022/07/18 06:13:09;;;;;;;8.32;2.13;;;;;;;27.06;32.42;99689.22;5033877;28;20029;-62
2022/07/18 06:15:34;;;;;;;3.85;2.15;;;;;;;27.83;31.21;99697.63;5045722;28;20067;-63
2022/07/18 06:18:00;;;;;;;4.43;2.33;;;;;;;29.40;29.40;99683.75;5035329;28;20056;-63
2022/07/18 06:20:25;;;;;;;5.30;3.33;;;;;;;31.01;26.81;99658.88;5035164;28;20025;-63
2022/07/18 06:22:51;;;;;;;7.85;3.03;;;;;;;31.34;25.44;99668.00;5053476;28;20037;-61
2022/07/18 06:25:17;;;;;;;5.35;2.67;;;;;;;31.02;26.31;99685.44;5051617;28;20029;-62
2022/07/18 06:27:43;;;;;;;5.65;2.80;;;;;;;30.53;26.56;99679.97;5052254;28;20465;-62
2022/07/18 06:30:09;;;;;;;6.20;3.35;;;;;;;30.43;25.94;99692.59;5042024;28;20029;-63
2022/07/18 06:32:35;;;;;;;4.75;2.97;;;;;;;30.90;25.72;99676.50;5036684;28;20032;-62
2022/07/18 06:35:02;;;;;;;4.53;2.78;;;;;;;31.85;24.91;99674.13;5045487;28;20398;-64
2022/07/18 06:37:29;;;;;;;7.28;3.67;;;;;;;31.76;24.49;99669.13;5032580;28;20042;-61
2022/07/18 06:39:54;;;;;;;8.48;3.28;;;;;;;31.33;25.29;99676.56;5033054;28;20037;-61
2022/07/18 06:42:20;;;;;;;5.10;2.97;;;;;;;30.55;25.83;99667.59;5036910;28;20469;-61
2022/07/18 06:44:45;;;;;;;6.40;3.17;;;;;;;29.85;27.40;99681.91;5047280;28;20113;-61
2022/07/18 06:47:11;;;;;;;3.20;2.60;;;;;;;28.60;27.50;99610.25;5031933;28;20028;-68
2022/07/18 06:49:36;;;;;;;6.10;3.42;;;;;;;28.04;28.97;99684.31;5033712;28;20026;-61
2022/07/18 06:52:02;;;;;;;4.22;2.60;;;;;;;27.35;30.41;99680.28;5040494;28;20470;-65
2022/07/18 06:54:28;;;;;;;6.18;3.17;;;;;;;26.76;31.45;99670.03;5038065;28;20599;-60
2022/07/18 06:56:54;;;;;;;3.75;2.80;;;;;;;26.09;33.11;99674.53;5053062;28;20056;-60
2022/07/18 06:59:20;;;;;;;4.40;3.20;;;;;;;25.63;33.29;99677.56;5035847;28;20036;-61
2022/07/18 07:01:46;;;;;;;5.20;3.05;;;;;;;25.23;34.25;99675.19;5049292;28;20056;-60
2022/07/18 07:04:12;;;;;;;5.03;3.25;;;;;;;24.94;34.82;99678.34;5051698;28;20109;-61
2022/07/18 07:06:38;;;;;;;10.60;3.97;;;;;;;24.78;36.02;99681.66;5052969;28;20029;-60
2022/07/18 07:09:05;;;;;;;5.63;3.30;;;;;;;24.78;37.02;99681.66;5052508;28;20112;-62
2022/07/18 07:11:30;;;;;;;8.45;4.20;;;;;;;24.57;37.64;99677.31;5048434;28;20032;-60
2022/07/18 07:13:56;;;;;;;8.88;4.55;;;;;;;24.48;37.57;99676.75;5040352;28;20033;-60
2022/07/18 07:16:21;;;;;;;8.27;4.43;;;;;;;24.33;37.98;99677.88;5035633;28;20481;-61
2022/07/18 07:18:48;;;;;;;5.07;4.15;;;;;;;24.13;38.30;99680.72;5032550;28;20034;-60
2022/07/18 07:21:13;;;;;;;9.43;4.72;;;;;;;23.93;38.88;99678.00;5049842;28;20040;-59
2022/07/18 07:23:40;;;;;;;8.20;4.60;;;;;;;23.76;39.49;99688.59;5032218;28;20065;-61
2022/07/18 07:26:06;;;;;;;9.60;4.50;;;;;;;23.77;40.03;99687.53;5040375;28;20040;-62
2022/07/18 07:28:31;;;;;;;6.40;4.38;;;;;;;23.66;39.40;99675.34;5052379;28;20037;-61
2022/07/18 07:30:57;;;;;;;5.72;3.92;;;;;;;23.73;39.55;99683.56;5051909;28;20393;-61
2022/07/18 07:33:23;;;;;;;5.28;3.75;;;;;;;23.75;38.77;99684.16;5033686;28;20029;-63
2022/07/18 07:35:48;;;;;;;6.15;3.17;;;;;;;23.70;38.92;99675.78;5030723;28;20037;-60
2022/07/18 07:38:18;;;;;;;9.13;3.40;;;;;;;23.75;38.62;99685.03;5029063;28;20083;-62
2022/07/18 07:40:44;;;;;;;4.95;3.78;;;;;;;23.79;38.72;99685.41;5028984;28;20045;-61
2022/07/18 07:43:16;;;;;;;6.07;3.95;;;;;;;23.94;38.39;99693.34;5031636;28;20121;-61
2022/07/18 07:45:46;;;;;;;6.45;3.78;;;;;;;23.91;38.20;99694.66;5031687;28;20048;-61
2022/07/18 07:48:11;;;;;;;6.03;3.53;;;;;;;23.86;37.40;99691.69;5031923;28;20467;-61
2022/07/18 07:50:37;;;;;;;5.93;4.03;;;;;;;23.87;37.72;99682.47;5031680;28;20105;-62
2022/07/18 07:53:02;;;;;;;6.18;3.90;;;;;;;23.97;36.94;99675.69;5032334;28;20025;-61
2022/07/18 07:55:28;;;;;;;6.50;3.55;;;;;;;24.32;36.97;99673.47;5032157;28;20100;-61
2022/07/18 07:57:53;;;;;;;5.93;3.38;;;;;;;25.13;35.23;99670.19;5030991;28;20362;-60
2022/07/18 08:00:20;;;;;;;4.35;2.58;;;;;;;26.08;33.21;99656.38;5031754;28;20164;-61
2022/07/18 08:03:03;;;;;;;5.95;3.33;;;;;;;27.75;31.45;99665.81;5031779;28;20068;-61
2022/07/18 08:05:31;;;;;;;5.90;3.20;;;;;;;29.92;27.41;99632.06;5031813;28;20037;-61
2022/07/18 08:07:58;;;;;;;5.25;3.05;;;;;;;31.06;26.38;99644.28;5031389;28;20497;-62
2022/07/18 08:10:24;;;;;;;4.57;2.97;;;;;;;30.97;26.41;99641.16;5031536;28;20033;-61
2022/07/18 08:12:50;;;;;;;7.85;3.03;;;;;;;30.53;26.28;99638.53;5031719;28;20033;-60
2022/07/18 08:15:16;;;;;;;5.03;2.45;;;;;;;30.28;26.41;99639.94;5031427;28;20025;-61
2022/07/18 08:17:41;;;;;;;4.00;2.72;;;;;;;30.34;26.11;99634.22;5031236;28;20033;-61
2022/07/18 08:20:08;;;;;;;4.82;2.63;;;;;;;30.46;26.26;99614.72;5031633;28;20065;-64
2022/07/18 08:22:34;;;;;;;4.68;2.50;;;;;;;30.68;25.43;99624.06;5031623;28;20037;-60
2022/07/18 08:25:00;;;;;;;5.22;2.88;;;;;;;30.63;25.44;99627.63;5029729;28;20095;-62
2022/07/18 08:27:26;;;;;;;4.38;2.85;;;;;;;30.46;25.28;99620.25;5031149;28;20108;-60
2022/07/18 08:29:51;;;;;;;5.88;2.95;;;;;;;29.87;26.22;99618.22;5031308;28;20137;-61
2022/07/18 08:32:17;;;;;;;6.28;2.60;;;;;;;29.39;26.94;99613.16;5031369;28;20116;-59
2022/07/18 08:34:42;;;;;;;3.13;2.35;;;;;;;29.14;26.26;99619.09;5031096;28;20408;-61
2022/07/18 08:37:08;;;;;;;2.80;2.40;;;;;;;29.04;26.71;99619.78;5031322;28;20034;-64
2022/07/18 08:39:33;;;;;;;2.38;1.88;;;;;;;29.12;26.63;99613.00;5031531;28;20026;-60
2022/07/18 08:42:01;;;;;;;5.88;2.58;;;;;;;28.99;26.90;99620.56;5031307;28;20197;-60
2022/07/18 08:44:28;;;;;;;3.42;2.33;;;;;;;29.04;26.79;99617.88;5030934;28;20052;-61
2022/07/18 08:46:57;;;;;;;4.72;2.30;;;;;;;29.16;26.81;99612.25;5031112;28;20079;-61
2022/07/18 08:49:22;;;;;;;2.83;2.25;;;;;;;29.11;26.42;99611.34;5031608;28;20087;-61
2022/07/18 08:51:48;;;;;;;2.85;1.80;;;;;;;29.21;26.71;99609.56;5030981;28;20388;-60
2022/07/18 08:54:13;;;;;;;2.53;1.75;;;;;;;29.33;26.41;99603.97;5030916;28;20080;-62
2022/07/18 08:56:39;;;;;;;3.80;1.63;;;;;;;29.41;25.80;99599.13;5031256;28;20480;-65
2022/07/18 08:59:04;;;;;;;2.13;1.48;;;;;;;29.26;24.89;99616.25;5030319;28;20030;-63
2022/07/18 09:01:30;;;;;;;2.08;1.25;;;;;;;29.05;25.39;99611.28;5029279;28;20049;-59
2022/07/18 09:04:17;;;;;;;1.60;1.42;;;;;;;29.16;25.23;99603.16;5030699;28;20049;-59
2022/07/18 09:06:52;;;;;;;2.50;1.43;;;;;;;28.86;26.03;99618.13;5030513;28;20116;-60
2022/07/18 09:09:18;;;;;;;1.30;1.20;;;;;;;28.22;26.53;99593.34;5030911;28;20274;-62
2022/07/18 09:11:55;;;;;;;2.50;1.30;;;;;;;28.43;27.12;99615.72;5029304;28;20037;-61
2022/07/18 09:14:40;;;;;;;1.30;1.20;;;;;;;28.71;26.58;99618.69;5030586;28;20037;-60
2022/07/18 09:17:16;;;;;;;2.72;1.50;;;;;;;29.00;26.14;99600.19;5030956;28;20029;-61
2022/07/18 09:19:56;;;;;;;2.30;1.40;;;;;;;29.02;26.27;99592.50;5030468;28;20132;-61
2022/07/18 09:22:24;;;;;;;1.85;1.15;;;;;;;28.63;26.44;99603.41;5030408;28;20087;-61
2022/07/18 09:24:52;;;;;;;2.17;1.42;;;;;;;28.43;26.01;99588.19;5030537;28;20116;-60
2022/07/18 09:27:23;;;;;;;1.58;1.30;;;;;;;28.36;26.23;99602.13;5030531;28;20120;-62
2022/07/18 09:30:06;;;;;;;5.22;1.17;;;;;;;28.64;26.52;99600.41;5030227;28;20133;-61
2022/07/18 09:32:31;;;;;;;1.50;1.20;;;;;;;28.52;26.57;99591.38;5029258;28;20038;-61
2022/07/18 09:35:04;;;;;;;1.45;0.88;;;;;;;28.54;26.29;99586.44;5030538;28;20026;-60
2022/07/18 09:37:30;;;;;;;1.23;1.08;;;;;;;28.45;25.97;99587.94;5030429;28;20041;-62
2022/07/18 09:40:18;;;;;;;1.20;1.10;;;;;;;28.58;26.48;99597.81;5030551;28;20105;-60
2022/07/18 09:42:48;;;;;;;2.17;1.10;;;;;;;27.96;26.49;99572.72;5030606;28;20041;-62
2022/07/18 09:45:13;;;;;;;1.98;1.65;;;;;;;27.62;27.59;99575.34;5030240;28;20108;-60
2022/07/18 09:47:50;;;;;;;4.25;1.48;;;;;;;27.35;28.63;99582.19;5030573;28;20185;-59
2022/07/18 09:50:22;;;;;;;4.30;1.42;;;;;;;26.85;29.02;99579.94;5030455;28;20170;-60
2022/07/18 09:53:03;;;;;;;3.20;1.90;;;;;;;26.57;30.43;99582.22;5030231;28;20125;-60
2022/07/18 09:55:29;;;;;;;3.30;2.60;;;;;;;26.00;31.26;99569.75;5029976;28;20026;-59
2022/07/18 09:58:06;;;;;;;3.72;2.63;;;;;;;25.66;31.96;99580.31;5030188;28;20034;-61
2022/07/18 10:00:36;;;;;;;5.07;2.80;;;;;;;25.32;32.55;99571.63;5030150;28;20155;-61
2022/07/18 10:03:05;;;;;;;3.15;2.63;;;;;;;24.98;32.93;99566.47;5029469;28;20041;-61
2022/07/18 10:05:34;;;;;;;6.45;2.40;;;;;;;24.69;33.68;99568.81;5039992;28;20091;-63
2022/07/18 10:08:01;;;;;;;4.07;2.78;;;;;;;24.46;34.32;99570.25;5024929;28;20041;-62
2022/07/18 10:10:29;;;;;;;6.75;3.45;;;;;;;24.00;35.55;99544.00;5041896;28;20518;-64
2022/07/18 10:12:56;;;;;;;4.35;2.80;;;;;;;23.90;35.74;99544.47;5052889;28;20029;-63
2022/07/18 10:15:24;;;;;;;4.32;2.35;;;;;;;24.05;35.32;99561.47;5053859;28;20029;-63
2022/07/18 10:17:50;;;;;;;4.35;2.30;;;;;;;24.10;35.14;99562.72;5041482;28;20124;-60
2022/07/18 10:20:16;;;;;;;2.67;2.30;;;;;;;24.12;35.38;99558.72;5045853;28;20112;-61
2022/07/18 10:22:43;;;;;;;2.50;2.20;;;;;;;24.23;34.75;99568.94;5053143;28;20051;-62
2022/07/18 10:25:13;;;;;;;2.15;1.88;;;;;;;24.34;34.54;99553.72;5049271;28;20086;-64
2022/07/18 10:27:48;;;;;;;3.67;2.22;;;;;;;24.52;34.19;99561.16;5050070;28;20033;-64
2022/07/18 10:30:14;;;;;;;3.07;2.03;;;;;;;24.50;34.00;99557.78;5038417;28;20038;-63
2022/07/18 10:32:40;;;;;;;3.25;2.38;;;;;;;24.52;33.70;99555.66;5052934;28;20304;-64
2022/07/18 10:35:07;;;;;;;4.63;2.20;;;;;;;24.67;33.94;99560.00;5040508;28;20025;-62
2022/07/18 10:37:36;;;;;;;6.82;2.03;;;;;;;25.00;33.18;99545.19;5047358;28;20033;-64
2022/07/18 10:40:24;;;;;;;2.08;1.73;;;;;;;25.71;32.74;99541.25;5032847;28;20033;-64
2022/07/18 10:43:29;;;;;;;2.85;1.88;;;;;;;26.13;31.98;99532.22;5031254;28;20478;-63
2022/07/18 10:45:54;;;;;;;3.25;2.25;;;;;;;26.39;31.13;99536.50;5032737;28;20037;-63
2022/07/18 10:48:32;;;;;;;3.65;1.95;;;;;;;26.56;30.90;99536.63;5042490;28;20105;-63
2022/07/18 10:51:17;;;;;;;4.00;1.80;;;;;;;26.67;30.96;99536.91;5037664;28;20041;-63
2022/07/18 10:53:55;;;;;;;2.97;1.80;;;;;;;26.35;30.47;99527.06;5033151;28;20041;-63
2022/07/18 10:57:04;;;;;;;3.88;2.00;;;;;;;25.81;31.59;99536.06;5033864;28;20105;-61
2022/07/18 10:59:29;;;;;;;2.40;1.70;;;;;;;25.21;32.10;99519.25;5033244;28;20033;-61
2022/07/18 11:01:55;;;;;;;2.58;1.88;;;;;;;24.92;32.63;99534.53;5050078;28;20511;-60
2022/07/18 11:04:32;;;;;;;2.95;2.00;;;;;;;24.96;33.56;99523.94;5049001;28;20048;-60
2022/07/18 11:07:06;;;;;;;3.20;1.83;;;;;;;24.87;33.50;99537.09;5052256;28;20082;-62
2022/07/18 11:09:44;;;;;;;2.70;1.90;;;;;;;24.97;33.66;99540.16;5052482;28;20453;-63
2022/07/18 11:12:20;;;;;;;1.70;1.50;;;;;;;25.15;32.74;99533.03;5032938;28;20485;-60
2022/07/18 11:15:12;;;;;;;1.98;1.70;;;;;;;25.39;32.22;99522.22;5031450;28;20121;-63
2022/07/18 11:18:00;;;;;;;3.13;1.70;;;;;;;25.48;31.34;99520.88;5031934;28;20029;-64
2022/07/18 11:20:36;;;;;;;4.30;1.65;;;;;;;25.13;31.73;99492.16;5038465;28;20063;-62
2022/07/18 11:23:04;;;;;;;3.58;1.60;;;;;;;25.18;32.27;99516.94;5048711;28;20041;-61
2022/07/18 11:25:30;;;;;;;3.33;1.88;;;;;;;25.14;31.66;99501.22;5031644;28;20037;-62
2022/07/18 11:27:56;;;;;;;2.28;1.42;;;;;;;25.14;31.35;99512.19;5031991;28;20084;-62
2022/07/18 11:30:23;;;;;;;2.50;1.63;;;;;;;25.03;31.35;99505.56;5035828;28;20032;-61
2022/07/18 11:32:50;;;;;;;2.47;1.48;;;;;;;24.85;32.29;99511.84;5051713;28;20025;-64
2022/07/18 11:35:22;;;;;;;3.35;1.73;;;;;;;24.74;32.67;99516.13;5050795;28;20028;-63
2022/07/18 11:37:49;;;;;;;1.80;1.48;;;;;;;24.36;32.85;99516.03;5051829;28;20370;-66
2022/07/18 11:40:16;;;;;;;5.32;1.58;;;;;;;24.18;33.58;99494.06;5050768;28;20037;-62